KAID/AID METAR and TAF weather

Enter ICAO airport designator
Station Type Date Time Source
KAID METAR 2021/05/10 01:15 UTC NOAA

KAID 100115Z AUTO 03005KT 10SM OVC019 06/04 A2997 RMK AO2 T00610040


Station Type Date Time Source
KAID Decoded METAR 2021/05/10 01:15 UTC NOAA

Anderson Municipal, IN, United States (KAID) 40-07N 085-37W
May 09, 2021 - 09:15 PM EDT / 2021.05.10 0115 UTC
Wind: from the NNE (030 degrees) at 6 MPH (5 KT):0
Visibility: 10 mile(s):0
Sky conditions: overcast
Temperature: 43.0 F (6.1 C)
Dew Point: 39.2 F (4.0 C)
Relative Humidity: 86%
Pressure (altimeter): 29.97 in. Hg (1014 hPa)
ob: KAID 100115Z AUTO 03005KT 10SM OVC019 06/04 A2997 RMK AO2 T00610040
cycle: 1

Station Type Date Time Source
KAID TAF UTC NOAA

Error!

Example: see airport list